createdAt,value
2022-12-14T00:02:26.437Z,-1.30
2022-12-14T00:04:56.655Z,-1.30
2022-12-14T00:07:24.029Z,-1.30
2022-12-14T00:09:54.668Z,-1.20
2022-12-14T00:12:21.724Z,-1.20
2022-12-14T00:14:50.043Z,-1.10
2022-12-14T00:17:20.323Z,-1.10
2022-12-14T00:19:48.969Z,-1.10
2022-12-14T00:22:16.473Z,-1.00
2022-12-14T00:24:43.398Z,-1.10
2022-12-14T00:27:13.935Z,-1.00
2022-12-14T00:29:40.848Z,-1.00
2022-12-14T00:32:07.861Z,-0.90
2022-12-14T00:34:35.021Z,-0.90
2022-12-14T00:37:02.042Z,-0.80
2022-12-14T00:39:28.963Z,-0.70
2022-12-14T00:41:56.046Z,-0.60
2022-12-14T00:44:23.006Z,-0.50
2022-12-14T00:46:50.132Z,-0.50
2022-12-14T00:49:17.295Z,-0.50
2022-12-14T00:51:44.207Z,-0.40
2022-12-14T00:54:11.231Z,-0.50
2022-12-14T00:56:38.165Z,-0.50
2022-12-14T00:59:05.142Z,-0.40
2022-12-14T01:01:32.413Z,-0.40
2022-12-14T01:04:17.468Z,-0.30
2022-12-14T01:06:45.232Z,-0.30
2022-12-14T01:09:12.233Z,-0.20
2022-12-14T01:11:39.566Z,-0.20
2022-12-14T01:14:07.418Z,-0.10
2022-12-14T01:16:37.841Z,0.00
2022-12-14T01:19:05.613Z,0.10
2022-12-14T01:21:32.966Z,0.20
2022-12-14T01:24:01.362Z,0.30
2022-12-14T01:26:29.109Z,0.30
2022-12-14T01:28:57.920Z,0.40
2022-12-14T01:31:26.840Z,0.50
2022-12-14T01:33:54.165Z,0.50
2022-12-14T01:36:23.234Z,0.60
2022-12-14T01:38:53.668Z,0.70
2022-12-14T01:41:25.471Z,0.70
2022-12-14T01:43:56.913Z,0.60
2022-12-14T01:46:42.064Z,0.60
2022-12-14T01:49:23.374Z,0.70
2022-12-14T01:51:57.491Z,0.80
2022-12-14T01:54:26.680Z,0.90
2022-12-14T01:56:54.502Z,1.00
2022-12-14T01:59:27.951Z,1.10
2022-12-14T02:01:55.534Z,1.10
2022-12-14T02:04:22.646Z,1.20
2022-12-14T02:06:56.514Z,1.30
2022-12-14T02:09:30.286Z,1.40
2022-12-14T02:11:57.293Z,1.40
2022-12-14T02:14:27.750Z,1.50
2022-12-14T02:16:56.200Z,1.60
2022-12-14T02:19:24.082Z,1.60
2022-12-14T02:21:51.130Z,1.70
2022-12-14T02:24:18.155Z,1.70
2022-12-14T02:26:45.397Z,1.80
2022-12-14T02:29:21.585Z,1.90
2022-12-14T02:31:51.775Z,1.90
2022-12-14T02:34:36.984Z,2.00
2022-12-14T02:37:07.775Z,2.00
2022-12-14T02:40:04.562Z,2.10
2022-12-14T02:42:43.647Z,2.10
2022-12-14T02:45:23.096Z,2.20
2022-12-14T02:48:01.860Z,2.20
2022-12-14T02:50:51.663Z,2.20
2022-12-14T02:53:54.145Z,2.30
2022-12-14T02:56:24.416Z,2.30
2022-12-14T02:58:55.271Z,2.40
2022-12-14T03:01:24.230Z,2.40
2022-12-14T03:03:51.607Z,2.40
2022-12-14T03:06:26.344Z,2.50
2022-12-14T03:09:05.715Z,2.50
2022-12-14T03:11:56.349Z,2.50
2022-12-14T03:14:27.805Z,2.50
2022-12-14T03:16:57.385Z,2.50
2022-12-14T03:19:34.275Z,2.50
2022-12-14T03:22:08.003Z,2.60
2022-12-14T03:24:39.321Z,2.60
2022-12-14T03:27:12.785Z,2.60
2022-12-14T03:29:43.428Z,2.60
2022-12-14T03:32:11.597Z,2.60
2022-12-14T03:34:41.026Z,2.60
2022-12-14T03:37:10.923Z,2.60
2022-12-14T03:39:39.069Z,2.60
2022-12-14T03:42:09.285Z,2.60
2022-12-14T03:44:59.182Z,2.60
2022-12-14T03:47:41.492Z,2.60
2022-12-14T03:50:16.411Z,2.60
2022-12-14T03:52:57.158Z,2.60
2022-12-14T03:55:27.386Z,2.70
2022-12-14T03:58:09.541Z,2.70
2022-12-14T04:00:40.783Z,2.70
2022-12-14T04:03:07.944Z,2.70
2022-12-14T04:05:44.082Z,2.70
2022-12-14T04:08:16.783Z,2.70
2022-12-14T04:11:04.981Z,2.70
2022-12-14T04:13:53.869Z,2.70
2022-12-14T04:16:42.128Z,2.80
2022-12-14T04:19:12.919Z,2.70
2022-12-14T04:21:39.799Z,2.80
2022-12-14T04:24:43.332Z,2.80
2022-12-14T04:27:12.986Z,2.80
2022-12-14T04:29:56.999Z,2.80
2022-12-14T04:32:24.009Z,2.80
2022-12-14T04:34:54.064Z,2.80
2022-12-14T04:37:23.039Z,2.80
2022-12-14T04:40:01.592Z,2.80
2022-12-14T04:42:31.068Z,2.80
2022-12-14T04:45:04.882Z,2.80
2022-12-14T04:47:35.231Z,2.80
2022-12-14T04:50:10.763Z,2.80
2022-12-14T04:52:46.045Z,2.80
2022-12-14T04:55:25.408Z,2.80
2022-12-14T04:57:54.862Z,2.80
2022-12-14T05:00:21.814Z,2.80
2022-12-14T05:03:07.651Z,2.80
2022-12-14T05:05:37.318Z,2.80
2022-12-14T05:08:10.719Z,2.90
2022-12-14T05:11:30.093Z,2.90
2022-12-14T05:13:49.893Z,2.90
2022-12-14T05:16:17.602Z,2.90
2022-12-14T05:18:44.944Z,2.90
2022-12-14T05:21:34.787Z,2.90
2022-12-14T05:24:02.903Z,3.00
2022-12-14T05:26:32.521Z,3.00
2022-12-14T05:28:59.604Z,3.00
2022-12-14T05:31:26.672Z,3.00
2022-12-14T05:33:56.284Z,3.00
2022-12-14T05:36:23.352Z,3.10
2022-12-14T05:38:50.382Z,3.00
2022-12-14T05:41:17.648Z,3.10
2022-12-14T05:43:44.665Z,3.00
2022-12-14T05:46:16.263Z,3.00
2022-12-14T05:48:47.542Z,3.00
2022-12-14T05:51:16.184Z,2.90
2022-12-14T05:53:43.312Z,2.90
2022-12-14T05:56:10.886Z,2.80
2022-12-14T05:58:38.359Z,2.80
2022-12-14T06:01:06.854Z,2.70
2022-12-14T06:03:34.379Z,2.70
2022-12-14T06:06:05.379Z,2.60
2022-12-14T06:08:43.003Z,2.50
2022-12-14T06:11:11.828Z,2.50
2022-12-14T06:13:39.433Z,2.50
2022-12-14T06:16:17.825Z,2.40
2022-12-14T06:18:46.035Z,2.40
2022-12-14T06:21:13.863Z,2.40
2022-12-14T06:23:41.154Z,2.40
2022-12-14T06:26:08.472Z,2.40
2022-12-14T06:28:36.100Z,2.50
2022-12-14T06:31:03.476Z,2.50
2022-12-14T06:33:31.960Z,2.50
2022-12-14T06:35:59.333Z,2.60
2022-12-14T06:38:26.349Z,2.50
2022-12-14T06:40:53.377Z,2.50
2022-12-14T06:43:24.141Z,2.60
2022-12-14T06:45:51.280Z,2.60
2022-12-14T06:48:18.327Z,2.60
2022-12-14T06:50:45.239Z,2.60
2022-12-14T06:53:13.596Z,2.60
2022-12-14T06:55:40.648Z,2.60
2022-12-14T06:58:10.179Z,2.60
2022-12-14T07:00:37.131Z,2.60
2022-12-14T07:03:04.316Z,2.60
2022-12-14T07:05:31.353Z,2.60
2022-12-14T07:07:58.495Z,2.60
2022-12-14T07:10:25.355Z,2.60
2022-12-14T07:12:52.235Z,2.50
2022-12-14T07:15:19.238Z,2.50
2022-12-14T07:17:46.210Z,2.50
2022-12-14T07:20:13.275Z,2.60
2022-12-14T07:22:40.748Z,2.60
2022-12-14T07:25:07.788Z,2.60
2022-12-14T07:27:34.718Z,2.60
2022-12-14T07:30:01.629Z,2.50
2022-12-14T07:32:28.824Z,2.50
2022-12-14T07:34:55.752Z,2.30
2022-12-14T07:37:22.698Z,2.20
2022-12-14T07:39:49.666Z,2.20
2022-12-14T07:42:16.570Z,2.10
2022-12-14T07:44:43.721Z,1.90
2022-12-14T07:47:13.812Z,1.80
2022-12-14T07:49:43.673Z,1.70
2022-12-14T07:52:10.637Z,1.50
2022-12-14T07:54:37.550Z,1.40
2022-12-14T07:57:04.537Z,1.30
2022-12-14T07:59:32.802Z,1.20
2022-12-14T08:01:59.965Z,1.20
2022-12-14T08:04:27.074Z,1.20
2022-12-14T08:06:54.183Z,1.10
2022-12-14T08:09:21.152Z,1.10
2022-12-14T08:11:48.100Z,1.00
2022-12-14T08:14:20.097Z,0.90
2022-12-14T08:16:47.783Z,0.80
2022-12-14T08:19:15.075Z,0.80
2022-12-14T08:21:42.444Z,0.70
2022-12-14T08:24:12.538Z,0.70
2022-12-14T08:26:39.865Z,0.50
2022-12-14T08:29:07.188Z,0.50
2022-12-14T08:31:34.279Z,0.40
2022-12-14T08:34:01.927Z,0.40
2022-12-14T08:36:31.057Z,0.30
2022-12-14T08:38:59.330Z,0.20
2022-12-14T08:41:26.995Z,0.20
2022-12-14T08:43:55.236Z,0.20
2022-12-14T08:46:22.568Z,0.20
2022-12-14T08:48:50.767Z,0.30
2022-12-14T08:51:17.991Z,0.40
2022-12-14T08:53:47.813Z,0.50
2022-12-14T08:56:16.040Z,0.60
2022-12-14T08:58:43.134Z,0.70
2022-12-14T09:01:13.752Z,0.80
2022-12-14T09:03:41.667Z,0.80
2022-12-14T09:06:10.308Z,0.90
2022-12-14T09:08:37.450Z,1.00
2022-12-14T09:11:05.102Z,1.10
2022-12-14T09:13:33.044Z,1.20
2022-12-14T09:16:01.194Z,1.20
2022-12-14T09:18:28.975Z,1.20
2022-12-14T09:20:56.761Z,1.20
2022-12-14T09:23:24.655Z,1.20
2022-12-14T09:26:04.114Z,1.20
2022-12-14T09:28:31.989Z,1.10
2022-12-14T09:31:00.200Z,1.10
2022-12-14T09:33:28.275Z,1.00
2022-12-14T09:36:08.601Z,1.00
2022-12-14T09:38:36.607Z,0.90
2022-12-14T09:41:07.482Z,0.90
2022-12-14T09:43:42.827Z,0.80
2022-12-14T09:46:21.847Z,0.70
2022-12-14T09:48:49.674Z,0.70
2022-12-14T09:51:18.427Z,0.60
2022-12-14T09:53:46.768Z,0.50
2022-12-14T09:56:22.763Z,0.40
2022-12-14T09:58:54.769Z,0.40
2022-12-14T10:01:24.661Z,2.10
2022-12-14T10:04:06.975Z,0.30
2022-12-14T10:06:47.042Z,0.20
2022-12-14T10:09:25.989Z,0.20
2022-12-14T10:12:05.150Z,0.10
2022-12-14T10:14:44.322Z,0.10
2022-12-14T10:17:14.742Z,0.10
2022-12-14T10:19:50.920Z,0.10
2022-12-14T10:22:19.860Z,0.10
2022-12-14T10:24:49.144Z,0.00
2022-12-14T10:27:23.875Z,0.00
2022-12-14T10:29:59.997Z,0.00
2022-12-14T10:32:33.125Z,0.00
2022-12-14T10:35:01.624Z,-0.10
2022-12-14T10:37:51.775Z,-0.10
2022-12-14T10:40:34.090Z,-0.10
2022-12-14T10:43:01.919Z,-0.20
2022-12-14T10:45:40.880Z,-0.30
2022-12-14T10:48:27.829Z,-0.30
2022-12-14T10:51:17.268Z,-0.40
2022-12-14T10:53:48.001Z,-0.40
2022-12-14T10:56:19.250Z,-0.30
2022-12-14T10:59:06.330Z,-0.40
2022-12-14T11:01:33.398Z,-0.40
2022-12-14T11:04:00.532Z,-0.40
2022-12-14T11:06:27.703Z,-0.40
2022-12-14T11:08:55.846Z,-0.40
2022-12-14T11:11:24.644Z,-0.40
2022-12-14T11:13:51.550Z,-0.50
2022-12-14T11:16:23.615Z,-0.50
2022-12-14T11:18:58.917Z,-0.50
2022-12-14T11:21:32.654Z,-0.50
2022-12-14T11:23:59.639Z,-0.50
2022-12-14T11:26:36.890Z,-0.50
2022-12-14T11:29:05.292Z,-0.50
2022-12-14T11:31:39.592Z,-0.40
2022-12-14T11:34:07.678Z,-0.40
2022-12-14T11:36:37.728Z,-0.40
2022-12-14T11:39:04.693Z,-0.50
2022-12-14T11:41:35.875Z,-0.50
2022-12-14T11:44:22.934Z,-0.50
2022-12-14T11:46:58.961Z,-0.40
2022-12-14T11:49:30.153Z,-0.40
2022-12-14T11:52:06.117Z,-0.30
2022-12-14T11:54:34.220Z,-0.30
2022-12-14T11:57:07.525Z,-0.30
2022-12-14T11:59:53.584Z,-0.20
2022-12-14T12:02:34.289Z,-0.20
2022-12-14T12:05:04.082Z,-0.10
2022-12-14T12:07:33.134Z,-0.10
2022-12-14T12:10:01.711Z,-0.20
2022-12-14T12:12:28.784Z,-0.20
2022-12-14T12:14:56.219Z,-0.10
2022-12-14T12:17:35.386Z,-0.20
2022-12-14T12:20:02.840Z,-0.20
2022-12-14T12:22:31.734Z,-0.20
2022-12-14T12:25:24.849Z,-0.20
2022-12-14T12:27:50.481Z,-0.30
2022-12-14T12:30:24.137Z,-0.30
2022-12-14T12:32:53.133Z,-0.30
2022-12-14T12:35:27.131Z,-0.40
2022-12-14T12:37:59.184Z,-0.40
2022-12-14T12:40:29.358Z,-0.40
2022-12-14T12:43:02.683Z,-0.40
2022-12-14T12:45:41.634Z,-0.50
2022-12-14T12:48:11.947Z,-0.50
2022-12-14T12:50:49.971Z,-0.50
2022-12-14T12:53:19.455Z,-0.50
2022-12-14T12:55:49.144Z,-0.50
2022-12-14T12:58:22.645Z,-0.50
2022-12-14T13:00:55.584Z,-0.50
2022-12-14T13:03:28.300Z,-0.60
2022-12-14T13:05:56.885Z,-0.60
2022-12-14T13:08:29.226Z,-0.60
2022-12-14T13:11:25.224Z,-0.70
2022-12-14T13:13:49.154Z,-0.70
2022-12-14T13:16:26.953Z,-0.70
2022-12-14T13:19:18.628Z,-0.70
2022-12-14T13:21:47.940Z,-0.70
2022-12-14T13:24:18.633Z,-0.70
2022-12-14T13:27:03.188Z,-0.80
2022-12-14T13:29:49.401Z,-0.80
2022-12-14T13:32:16.344Z,-0.80
2022-12-14T13:35:01.893Z,-0.80
2022-12-14T13:37:37.999Z,-0.80
2022-12-14T13:40:23.913Z,-0.70
2022-12-14T13:42:55.302Z,-0.70
2022-12-14T13:45:23.566Z,-0.70
2022-12-14T13:47:54.307Z,-0.60
2022-12-14T13:50:51.238Z,-0.60
2022-12-14T13:53:43.354Z,-0.60
2022-12-14T13:56:19.930Z,-0.60
2022-12-14T13:58:48.060Z,-0.60
2022-12-14T14:01:15.079Z,-0.50
2022-12-14T14:03:43.696Z,-0.50
2022-12-14T14:06:19.689Z,-0.50
2022-12-14T14:08:49.289Z,-0.50
2022-12-14T14:11:38.778Z,-0.50
2022-12-14T14:14:12.764Z,-0.40
2022-12-14T14:16:43.830Z,-0.50
2022-12-14T14:19:11.601Z,-0.40
2022-12-14T14:21:52.457Z,-0.40
2022-12-14T14:24:26.542Z,-0.40
2022-12-14T14:27:11.719Z,-0.50
2022-12-14T14:29:46.639Z,-0.50
2022-12-14T14:32:25.844Z,-0.50
2022-12-14T14:34:53.004Z,-0.60
2022-12-14T14:37:20.002Z,-0.70
2022-12-14T14:40:20.339Z,-0.70
2022-12-14T14:42:51.720Z,-0.70
2022-12-14T14:45:28.024Z,-0.70
2022-12-14T14:47:57.285Z,-0.80
2022-12-14T14:50:27.186Z,-0.80
2022-12-14T14:52:58.838Z,-0.80
2022-12-14T14:58:26.959Z,-1.00
2022-12-14T15:01:03.139Z,-1.00
2022-12-14T15:03:36.569Z,-1.00
2022-12-14T15:06:03.737Z,-1.00
2022-12-14T15:08:33.964Z,-1.00
2022-12-14T15:11:04.884Z,-1.00
2022-12-14T15:13:46.474Z,-1.00
2022-12-14T15:16:24.239Z,-1.10
2022-12-14T15:18:51.339Z,-1.10
2022-12-14T15:21:19.302Z,-1.10
2022-12-14T15:23:49.529Z,-1.10
2022-12-14T15:26:21.590Z,-1.20
2022-12-14T15:28:54.357Z,-1.20
2022-12-14T15:31:29.249Z,-1.20
2022-12-14T15:33:57.076Z,-1.30
2022-12-14T15:36:26.994Z,-1.30
2022-12-14T15:38:56.099Z,-1.30
2022-12-14T15:41:23.905Z,-1.40
2022-12-14T15:43:56.448Z,-1.40
2022-12-14T15:46:26.738Z,-1.40
2022-12-14T15:49:01.137Z,-1.40
2022-12-14T15:51:32.711Z,-1.50
2022-12-14T15:54:01.251Z,-1.50
2022-12-14T15:56:33.955Z,-1.60
2022-12-14T15:59:02.221Z,-1.70
2022-12-14T16:01:35.242Z,-1.80
2022-12-14T16:04:05.280Z,-1.80
2022-12-14T16:06:32.784Z,-1.90
2022-12-14T16:09:02.808Z,-2.00
2022-12-14T16:11:37.844Z,-2.00
2022-12-14T16:14:13.407Z,-2.10
2022-12-14T16:16:40.596Z,-2.20
2022-12-14T16:19:25.865Z,-2.30
2022-12-14T16:22:09.161Z,-2.30
2022-12-14T16:24:37.625Z,-2.30
2022-12-14T16:27:05.078Z,-2.30
2022-12-14T16:29:32.992Z,-2.30
2022-12-14T16:32:01.260Z,-2.30
2022-12-14T16:34:28.499Z,-2.40
2022-12-14T16:37:32.263Z,-2.30
2022-12-14T16:39:48.026Z,-2.30
2022-12-14T16:42:19.766Z,-2.30
2022-12-14T16:44:47.392Z,-2.30
2022-12-14T16:47:17.309Z,-2.20
2022-12-14T16:49:50.929Z,-2.20
2022-12-14T16:52:24.344Z,-2.10
2022-12-14T16:55:06.269Z,-2.00
2022-12-14T16:57:33.670Z,-2.00
2022-12-14T17:00:01.791Z,-2.00
2022-12-14T17:02:30.887Z,-1.90
2022-12-14T17:04:59.625Z,-1.90
2022-12-14T17:07:27.954Z,-1.90
2022-12-14T17:09:56.682Z,-1.90
2022-12-14T17:12:25.131Z,-1.80
2022-12-14T17:14:52.440Z,-1.90
2022-12-14T17:17:39.066Z,-2.00
2022-12-14T17:20:13.567Z,-2.00
2022-12-14T17:22:41.874Z,-2.10
2022-12-14T17:25:10.350Z,-2.10
2022-12-14T17:27:37.373Z,-2.10
2022-12-14T17:30:08.845Z,-2.20
2022-12-14T17:32:35.981Z,-2.10
2022-12-14T17:35:03.937Z,-2.20
2022-12-14T17:37:36.140Z,-2.20
2022-12-14T17:40:04.260Z,-2.30
2022-12-14T17:42:31.411Z,-2.40
2022-12-14T17:44:59.600Z,-2.50
2022-12-14T17:47:26.716Z,-2.60
2022-12-14T17:49:53.764Z,-2.70
2022-12-14T17:52:38.722Z,-2.80
2022-12-14T17:55:05.953Z,-2.80
2022-12-14T17:57:33.171Z,-2.90
2022-12-14T18:00:18.712Z,-2.90
2022-12-14T18:02:46.038Z,-2.90
2022-12-14T18:05:20.150Z,-3.00
2022-12-14T18:07:47.094Z,-3.10
2022-12-14T18:10:18.212Z,-3.10
2022-12-14T18:12:45.329Z,-3.20
2022-12-14T18:15:17.137Z,-3.20
2022-12-14T18:17:44.016Z,-3.20
2022-12-14T18:20:11.380Z,-3.10
2022-12-14T18:22:39.098Z,-3.00
2022-12-14T18:25:25.010Z,-3.10
2022-12-14T18:27:51.991Z,-3.20
2022-12-14T18:30:20.764Z,-3.20
2022-12-14T18:32:47.936Z,-3.20
2022-12-14T18:35:19.880Z,-3.20
2022-12-14T18:37:49.364Z,-3.20
2022-12-14T18:40:18.227Z,-3.20
2022-12-14T18:42:45.594Z,-3.20
2022-12-14T18:45:24.801Z,-3.20
2022-12-14T18:47:52.205Z,-3.20
2022-12-14T18:50:19.136Z,-3.30
2022-12-14T18:52:46.595Z,-3.50
2022-12-14T18:55:16.585Z,-3.50
2022-12-14T18:57:44.252Z,-3.60
2022-12-14T19:00:13.169Z,-3.60
2022-12-14T19:02:40.559Z,-3.50
2022-12-14T19:05:08.615Z,-3.50
2022-12-14T19:07:35.486Z,-3.40
2022-12-14T19:10:02.475Z,-3.60
2022-12-14T19:12:29.436Z,-3.70
2022-12-14T19:14:56.345Z,-3.70
2022-12-14T19:17:23.241Z,-3.80
2022-12-14T19:19:50.219Z,-4.00
2022-12-14T19:22:18.120Z,-4.10
2022-12-14T19:24:49.142Z,-4.30
2022-12-14T19:27:35.722Z,-4.40
2022-12-14T19:30:07.624Z,-4.60
2022-12-14T19:32:34.762Z,-4.80
2022-12-14T19:35:01.719Z,-4.90
2022-12-14T19:37:28.663Z,-5.00
2022-12-14T19:39:55.756Z,-5.20
2022-12-14T19:42:23.337Z,-5.30
2022-12-14T19:44:50.461Z,-5.20
2022-12-14T19:47:20.793Z,-5.20
2022-12-14T19:49:47.899Z,-5.10
2022-12-14T19:52:15.139Z,-5.00
2022-12-14T19:54:42.093Z,-5.00
2022-12-14T19:57:14.206Z,-4.90
2022-12-14T19:59:41.519Z,-4.90
2022-12-14T20:02:11.867Z,-5.00
2022-12-14T20:04:40.264Z,-5.10
2022-12-14T20:07:07.738Z,-5.20
2022-12-14T20:09:35.394Z,-5.10
2022-12-14T20:12:02.700Z,-5.10
2022-12-14T20:14:31.506Z,-5.20
2022-12-14T20:17:02.655Z,-5.20
2022-12-14T20:19:30.069Z,-5.20
2022-12-14T20:21:57.187Z,-5.10
2022-12-14T20:24:24.629Z,-5.10
2022-12-14T20:26:51.897Z,-5.10
2022-12-14T20:29:19.936Z,-5.00
2022-12-14T20:31:47.409Z,-5.00
2022-12-14T20:34:14.694Z,-4.90
2022-12-14T20:36:41.637Z,-4.90
2022-12-14T20:39:09.845Z,-4.80
2022-12-14T20:41:37.226Z,-4.80
2022-12-14T20:44:07.267Z,-4.80
2022-12-14T20:46:35.311Z,-4.80
2022-12-14T20:49:12.574Z,-4.90
2022-12-14T20:51:40.119Z,-4.90
2022-12-14T20:54:08.144Z,-5.00
2022-12-14T20:56:35.912Z,-5.00
2022-12-14T20:59:03.706Z,-5.00
2022-12-14T21:01:30.825Z,-5.00
2022-12-14T21:03:59.834Z,-4.90
2022-12-14T21:06:27.605Z,-5.00
2022-12-14T21:09:09.801Z,-5.00
2022-12-14T21:12:02.770Z,-5.00
2022-12-14T21:14:52.213Z,-5.00
2022-12-14T21:17:26.084Z,-5.00
2022-12-14T21:19:57.379Z,-5.00
2022-12-14T21:22:29.336Z,-5.00
2022-12-14T21:25:05.708Z,-5.00
2022-12-14T21:27:39.164Z,-5.10
2022-12-14T21:30:11.179Z,-5.10
2022-12-14T21:32:39.111Z,-5.20
2022-12-14T21:35:09.262Z,-5.20
2022-12-14T21:37:37.757Z,-5.20
2022-12-14T21:40:05.117Z,-5.20
2022-12-14T21:42:32.176Z,-5.40
2022-12-14T21:45:05.100Z,-5.40
2022-12-14T21:47:32.202Z,-5.40
2022-12-14T21:50:02.664Z,-5.40
2022-12-14T21:52:29.861Z,-5.40
2022-12-14T21:55:00.211Z,-5.50
2022-12-14T21:57:49.388Z,-5.50
2022-12-14T22:00:18.142Z,-5.60
2022-12-14T22:02:45.689Z,-5.60
2022-12-14T22:05:13.939Z,-5.60
2022-12-14T22:07:40.875Z,-5.50
2022-12-14T22:10:12.391Z,-5.40
2022-12-14T22:12:43.277Z,-5.20
2022-12-14T22:15:13.218Z,-5.00
2022-12-14T22:17:40.230Z,-4.90
2022-12-14T22:20:07.598Z,-4.80
2022-12-14T22:22:34.815Z,-4.70
2022-12-14T22:25:02.283Z,-4.60
2022-12-14T22:27:29.231Z,-4.60
2022-12-14T22:29:56.285Z,-4.50
2022-12-14T22:32:23.266Z,-4.40
2022-12-14T22:34:50.697Z,-4.20
2022-12-14T22:37:17.661Z,-4.20
2022-12-14T22:39:48.404Z,-4.20
2022-12-14T22:42:15.775Z,-4.20
2022-12-14T22:44:42.745Z,-4.10
2022-12-14T22:47:13.754Z,-4.30
2022-12-14T22:49:47.878Z,-4.50
2022-12-14T22:52:25.005Z,-4.60
2022-12-14T22:54:55.862Z,-4.60
2022-12-14T22:57:26.999Z,-4.60
2022-12-14T22:59:58.793Z,-4.50
2022-12-14T23:02:26.220Z,-4.30
2022-12-14T23:04:56.491Z,-4.10
2022-12-14T23:07:23.741Z,-3.90
2022-12-14T23:10:09.389Z,-3.80
2022-12-14T23:12:54.919Z,-3.70
2022-12-14T23:15:40.400Z,-3.70
2022-12-14T23:18:26.626Z,-3.50
2022-12-14T23:21:12.127Z,-3.30
2022-12-14T23:23:58.887Z,-3.30
2022-12-14T23:26:44.937Z,-3.30
2022-12-14T23:29:30.449Z,-3.40
2022-12-14T23:32:15.767Z,-3.60
2022-12-14T23:35:01.280Z,-3.70
2022-12-14T23:37:46.535Z,-3.80
2022-12-14T23:40:32.089Z,-3.90
2022-12-14T23:43:25.797Z,-4.10
2022-12-14T23:46:11.389Z,-4.20
2022-12-14T23:48:56.950Z,-4.40
2022-12-14T23:51:42.482Z,-4.50
2022-12-14T23:54:27.866Z,-4.40
2022-12-14T23:57:13.620Z,-4.60
